Coalmont, Tennessee
Current Conditions -  °F | °C
As of 11:35 AM on Tuesday 21 Oct 2014 (Local Time) from KBGF Reporting Station
Clear Clear  
Wind Chill: 64°   Ceiling: Unl
Heat Index: 64°   Visibility: 10mi
Dew Point: 48°   Wind: 8mph
Humidity: 56%   Direction: 340°NNW
Pressure: 30.08"   Gusts: NA
Location:  35.34°N, 85.7°W
Report Text: KBGF 211635Z AUTO 34007KT 10SM CLR 18/09 A3008 RMK
Loading
Personal Weather Stations






























Interactive Weather Map
Tropical Storm Tracking
New forecast layout! Learn more

10-Day Weather Forecast

Advertisements
Track Severe Weather on mobile